Hlavní strana
METAR-TAF:

METAR-TAF

Letiště :

Dublin, Georgie, Spojené státy americké

zeměpisná šířka: 32-33-52N, zeměpisná délka: 082-59-07W, výška: 94 m

Aktuální stav počasí

Zpráva byla vytvořena před 15 minutami, v 18:15 UTC
Severovýchodní vítr 7 kt
Teplota 10°C
Vlhkost vzduchu 100%
Tlak 1017 hPa
Viditelnost: 4.8 km
Zataženo ve výšce 500 ft
mrholení

METAR: KDBN 151815Z AUTO 04007KT 3SM DZ OVC005 10/10 A3004 RMK AO2

Čas: 13:30 (18:30 UTC)


TAF: chybějící

Stav a předpovědi počasí z více než 4 000 letišť (zprávy METAR a TAF).

Červené a žluté tečky na mapě představují dostupné meteorologické stanice.

Když kurzor umístíte na tečku, zobrazí se název stanice.

Pak kliknutím zobrazíte stav a předpověď počasí.

Chcete-li změnit mapu, kliknutím na zelené tlačítko se znaménkem +mapu přiblížíte, kliknutím na zelené tlačítko se znaménkem – mapu oddálíte a kliknutím na zelené šipky přejdete na sousední mapy.


METAR-TAF: